createdAt,value
2022-11-24T00:01:21.819Z,4.44
2022-11-24T00:03:55.822Z,4.46
2022-11-24T00:06:24.485Z,4.46
2022-11-24T00:08:53.096Z,4.46
2022-11-24T00:11:23.316Z,4.47
2022-11-24T00:13:52.813Z,4.48
2022-11-24T00:16:23.467Z,4.48
2022-11-24T00:18:54.605Z,4.49
2022-11-24T00:21:23.752Z,4.50
2022-11-24T00:23:52.803Z,4.50
2022-11-24T00:26:22.833Z,4.50
2022-11-24T00:28:54.034Z,4.50
2022-11-24T00:31:23.754Z,4.50
2022-11-24T00:33:53.705Z,4.48
2022-11-24T00:36:23.107Z,4.46
2022-11-24T00:38:54.852Z,4.44
2022-11-24T00:41:23.268Z,4.40
2022-11-24T00:43:53.254Z,4.36
2022-11-24T00:46:21.972Z,4.31
2022-11-24T00:48:50.378Z,4.27
2022-11-24T00:51:19.871Z,4.24
2022-11-24T00:53:48.640Z,4.19
2022-11-24T00:56:16.775Z,4.14
2022-11-24T00:58:44.774Z,4.09
2022-11-24T01:01:16.826Z,4.04
2022-11-24T01:03:46.732Z,3.98
2022-11-24T01:06:17.555Z,3.96
2022-11-24T01:08:46.651Z,3.94
2022-11-24T01:11:17.713Z,3.95
2022-11-24T01:13:48.129Z,3.96
2022-11-24T01:16:20.677Z,3.97
2022-11-24T01:18:48.811Z,3.98
2022-11-24T01:21:17.290Z,3.99
2022-11-24T01:23:46.659Z,4.00
2022-11-24T01:26:17.575Z,4.02
2022-11-24T01:28:47.354Z,4.03
2022-11-24T01:31:17.685Z,4.02
2022-11-24T01:33:45.824Z,4.00
2022-11-24T01:36:14.013Z,4.01
2022-11-24T01:38:42.246Z,4.00
2022-11-24T01:41:13.670Z,3.99
2022-11-24T01:43:42.541Z,3.99
2022-11-24T01:46:20.764Z,3.98
2022-11-24T01:48:53.974Z,3.96
2022-11-24T01:51:25.913Z,3.95
2022-11-24T01:53:58.386Z,3.91
2022-11-24T01:56:27.807Z,3.87
2022-11-24T01:58:59.331Z,3.85
2022-11-24T02:01:31.546Z,3.82
2022-11-24T02:04:02.448Z,3.81
2022-11-24T02:06:33.540Z,3.80
2022-11-24T02:09:08.202Z,3.79
2022-11-24T02:11:39.409Z,3.77
2022-11-24T02:14:10.736Z,3.79
2022-11-24T02:16:42.727Z,3.82
2022-11-24T02:19:23.342Z,3.85
2022-11-24T02:21:51.411Z,3.86
2022-11-24T02:24:25.327Z,3.87
2022-11-24T02:26:54.901Z,3.89
2022-11-24T02:29:23.112Z,3.90
2022-11-24T02:31:56.395Z,3.91
2022-11-24T02:34:24.436Z,3.90
2022-11-24T02:36:52.565Z,3.89
2022-11-24T02:39:21.015Z,3.85
2022-11-24T02:41:53.368Z,3.81
2022-11-24T02:44:28.961Z,3.76
2022-11-24T02:47:03.688Z,3.73
2022-11-24T02:49:31.734Z,3.70
2022-11-24T02:52:00.012Z,3.70
2022-11-24T02:54:28.067Z,3.72
2022-11-24T02:56:56.247Z,3.70
2022-11-24T02:59:25.761Z,3.69
2022-11-24T03:01:55.425Z,3.70
2022-11-24T03:04:23.575Z,3.70
2022-11-24T03:06:51.661Z,3.73
2022-11-24T03:09:19.834Z,3.76
2022-11-24T03:11:48.003Z,3.78
2022-11-24T03:14:16.055Z,3.78
2022-11-24T03:16:45.476Z,3.78
2022-11-24T03:19:13.686Z,3.80
2022-11-24T03:21:41.700Z,3.84
2022-11-24T03:24:10.223Z,3.87
2022-11-24T03:26:38.254Z,3.91
2022-11-24T03:29:06.328Z,3.96
2022-11-24T03:31:34.467Z,4.00
2022-11-24T03:34:03.966Z,4.03
2022-11-24T03:36:32.010Z,4.09
2022-11-24T03:39:00.109Z,4.13
2022-11-24T03:41:28.245Z,4.17
2022-11-24T03:43:56.305Z,4.19
2022-11-24T03:46:24.595Z,4.19
2022-11-24T03:48:52.635Z,4.18
2022-11-24T03:51:22.080Z,4.18
2022-11-24T03:53:50.146Z,4.16
2022-11-24T03:56:18.338Z,4.14
2022-11-24T03:58:46.488Z,4.13
2022-11-24T04:01:14.605Z,4.12
2022-11-24T04:03:42.638Z,4.12
2022-11-24T04:06:10.989Z,4.14
2022-11-24T04:08:40.379Z,4.16
2022-11-24T04:11:08.457Z,4.20
2022-11-24T04:13:35.496Z,4.22
2022-11-24T04:16:06.749Z,4.24
2022-11-24T04:18:34.671Z,4.22
2022-11-24T04:21:02.556Z,4.21
2022-11-24T04:23:30.493Z,4.19
2022-11-24T04:25:59.760Z,4.14
2022-11-24T04:28:28.121Z,4.16
2022-11-24T04:30:56.054Z,4.16
2022-11-24T04:33:24.014Z,4.20
2022-11-24T04:35:54.339Z,4.23
2022-11-24T04:39:19.780Z,4.23
2022-11-24T04:41:11.818Z,4.23
2022-11-24T04:43:40.932Z,4.22
2022-11-24T04:46:12.492Z,4.19
2022-11-24T04:48:40.489Z,4.22
2022-11-24T04:51:08.516Z,4.22
2022-11-24T04:53:36.586Z,4.16
2022-11-24T04:56:06.072Z,4.14
2022-11-24T04:58:35.377Z,4.14
2022-11-24T05:01:03.294Z,4.15
2022-11-24T05:03:31.226Z,4.16
2022-11-24T05:06:00.084Z,4.18
2022-11-24T05:08:28.092Z,4.16
2022-11-24T05:10:55.966Z,4.13
2022-11-24T05:13:23.896Z,4.12
2022-11-24T05:15:53.180Z,4.10
2022-11-24T05:18:22.243Z,4.06
2022-11-24T05:20:50.083Z,3.98
2022-11-24T05:23:18.073Z,3.93
2022-11-24T05:25:47.772Z,3.90
2022-11-24T05:28:16.072Z,3.88
2022-11-24T05:30:44.184Z,3.88
2022-11-24T05:33:18.939Z,3.87
2022-11-24T05:35:47.173Z,3.88
2022-11-24T05:38:15.409Z,3.90
2022-11-24T05:40:43.542Z,3.88
2022-11-24T05:43:12.870Z,3.87
2022-11-24T05:45:40.739Z,3.87
2022-11-24T05:48:11.470Z,3.88
2022-11-24T05:50:41.007Z,3.84
2022-11-24T05:53:11.157Z,3.82
2022-11-24T05:55:39.168Z,3.80
2022-11-24T05:58:09.097Z,3.79
2022-11-24T06:00:37.415Z,3.78
2022-11-24T06:03:05.842Z,3.78
2022-11-24T06:05:34.069Z,3.80
2022-11-24T06:08:03.369Z,3.83
2022-11-24T06:10:31.447Z,3.85
2022-11-24T06:12:59.300Z,3.87
2022-11-24T06:15:27.183Z,3.88
2022-11-24T06:17:56.052Z,3.93
2022-11-24T06:20:27.204Z,3.96
2022-11-24T06:22:58.886Z,3.95
2022-11-24T06:25:28.611Z,3.95
2022-11-24T06:27:56.477Z,3.93
2022-11-24T06:30:24.437Z,3.90
2022-11-24T06:32:55.889Z,3.85
2022-11-24T06:35:23.807Z,3.83
2022-11-24T06:37:51.653Z,3.81
2022-11-24T06:40:19.673Z,3.81
2022-11-24T06:42:52.605Z,3.79
2022-11-24T06:45:20.566Z,3.79
2022-11-24T06:47:48.395Z,3.77
2022-11-24T06:50:16.778Z,3.75
2022-11-24T06:52:44.633Z,3.73
2022-11-24T06:55:12.673Z,3.70
2022-11-24T06:57:40.593Z,3.70
2022-11-24T07:00:11.838Z,3.65
2022-11-24T07:02:45.372Z,3.62
2022-11-24T07:05:13.836Z,3.59
2022-11-24T07:07:41.864Z,3.56
2022-11-24T07:10:09.909Z,3.53
2022-11-24T07:12:37.790Z,3.49
2022-11-24T07:15:06.894Z,3.46
2022-11-24T07:17:38.544Z,3.42
2022-11-24T07:20:08.370Z,3.40
2022-11-24T07:22:36.452Z,3.40
2022-11-24T07:25:07.359Z,3.42
2022-11-24T07:27:35.436Z,3.44
2022-11-24T07:30:03.460Z,3.46
2022-11-24T07:32:32.879Z,3.51
2022-11-24T07:35:02.158Z,3.59
2022-11-24T07:37:31.837Z,3.67
2022-11-24T07:39:59.923Z,3.78
2022-11-24T07:42:28.735Z,3.91
2022-11-24T07:44:56.717Z,4.00
2022-11-24T07:47:24.621Z,4.10
2022-11-24T07:49:52.498Z,4.20
2022-11-24T07:52:21.765Z,4.29
2022-11-24T07:54:49.654Z,4.41
2022-11-24T07:57:17.522Z,4.48
2022-11-24T07:59:45.433Z,4.57
2022-11-24T08:02:14.248Z,4.63
2022-11-24T08:04:42.121Z,4.70
2022-11-24T08:07:10.007Z,4.77
2022-11-24T08:09:39.326Z,4.84
2022-11-24T08:12:07.833Z,4.92
2022-11-24T08:14:35.914Z,4.99
2022-11-24T08:17:04.027Z,5.15
2022-11-24T08:19:33.210Z,5.31
2022-11-24T08:22:01.060Z,5.43
2022-11-24T08:24:29.064Z,5.55
2022-11-24T08:26:58.384Z,5.70
2022-11-24T08:29:29.488Z,5.80
2022-11-24T08:31:58.347Z,5.90
2022-11-24T08:34:29.558Z,6.00
2022-11-24T08:36:57.486Z,6.13
2022-11-24T08:39:25.380Z,6.25
2022-11-24T08:41:53.262Z,6.36
2022-11-24T08:44:22.473Z,6.50
2022-11-24T08:46:50.648Z,6.60
2022-11-24T08:49:18.960Z,6.73
2022-11-24T08:51:48.564Z,6.82
2022-11-24T08:54:18.680Z,6.92
2022-11-24T08:56:47.172Z,7.04
2022-11-24T08:59:15.532Z,7.11
2022-11-24T09:01:45.332Z,7.19
2022-11-24T09:04:13.558Z,7.26
2022-11-24T09:06:41.581Z,7.34
2022-11-24T09:09:10.958Z,7.41
2022-11-24T09:11:39.001Z,7.45
2022-11-24T09:14:07.180Z,7.44
2022-11-24T09:16:35.385Z,7.47
2022-11-24T09:19:06.420Z,7.51
2022-11-24T09:21:37.783Z,7.51
2022-11-24T09:24:07.301Z,7.51
2022-11-24T09:26:38.988Z,7.55
2022-11-24T09:29:08.988Z,7.57
2022-11-24T09:31:39.280Z,7.59
2022-11-24T09:34:12.144Z,7.58
2022-11-24T09:36:40.039Z,7.62
2022-11-24T09:39:07.973Z,7.65
2022-11-24T09:42:08.564Z,7.64
2022-11-24T09:44:53.961Z,7.64
2022-11-24T09:47:32.417Z,7.63
2022-11-24T09:50:05.210Z,7.65
2022-11-24T09:52:40.602Z,7.63
2022-11-24T09:55:22.943Z,7.61
2022-11-24T09:57:57.202Z,7.59
2022-11-24T10:00:25.406Z,7.55
2022-11-24T10:02:53.342Z,7.54
2022-11-24T10:05:27.496Z,7.51
2022-11-24T10:08:08.709Z,7.49
2022-11-24T10:10:48.989Z,7.47
2022-11-24T10:13:31.754Z,7.46
2022-11-24T10:16:07.593Z,7.44
2022-11-24T10:18:46.591Z,7.45
2022-11-24T10:21:35.860Z,7.43
2022-11-24T10:24:28.291Z,7.44
2022-11-24T10:27:03.853Z,7.42
2022-11-24T10:29:37.668Z,7.42
2022-11-24T10:32:14.366Z,7.42
2022-11-24T10:34:46.008Z,7.42
2022-11-24T10:37:22.681Z,7.44
2022-11-24T10:40:00.214Z,7.45
2022-11-24T10:42:31.419Z,7.48
2022-11-24T10:45:03.376Z,7.46
2022-11-24T10:47:32.474Z,7.45
2022-11-24T10:50:03.839Z,7.46
2022-11-24T10:52:41.075Z,7.47
2022-11-24T10:55:09.225Z,7.50
2022-11-24T10:57:39.324Z,7.52
2022-11-24T11:00:34.245Z,7.55
2022-11-24T11:03:18.532Z,7.59
2022-11-24T11:05:51.968Z,7.63
2022-11-24T11:08:25.541Z,7.66
2022-11-24T11:11:14.250Z,7.72
2022-11-24T11:14:01.695Z,7.76
2022-11-24T11:16:38.053Z,7.76
2022-11-24T11:19:47.923Z,7.76
2022-11-24T11:22:20.307Z,7.76
2022-11-24T11:25:03.080Z,7.75
2022-11-24T11:27:31.002Z,7.79
2022-11-24T11:36:12.298Z,7.89
2022-11-24T11:38:41.496Z,7.92
2022-11-24T11:41:20.065Z,7.94
2022-11-24T11:43:51.263Z,8.03
2022-11-24T11:46:19.207Z,8.09
2022-11-24T11:48:49.008Z,8.11
2022-11-24T11:51:33.494Z,8.14
2022-11-24T11:54:10.674Z,8.22
2022-11-24T11:56:44.360Z,8.38
2022-11-24T11:59:43.091Z,8.53
2022-11-24T12:02:51.711Z,8.65
2022-11-24T12:05:31.195Z,8.77
2022-11-24T12:08:21.754Z,8.81
2022-11-24T12:10:58.760Z,8.90
2022-11-24T12:13:57.252Z,8.99
2022-11-24T12:16:34.837Z,8.97
2022-11-24T12:19:28.635Z,8.91
2022-11-24T12:22:05.488Z,8.90
2022-11-24T12:24:44.766Z,8.86
2022-11-24T12:27:25.177Z,8.83
2022-11-24T12:30:06.051Z,8.80
2022-11-24T12:32:56.273Z,8.88
2022-11-24T12:35:29.861Z,8.91
2022-11-24T12:38:08.536Z,8.94
2022-11-24T12:41:18.264Z,8.94
2022-11-24T12:43:51.329Z,8.92
2022-11-24T12:46:29.378Z,8.94
2022-11-24T12:49:09.686Z,8.91
2022-11-24T12:51:40.943Z,8.88
2022-11-24T12:54:16.854Z,8.85
2022-11-24T12:56:50.464Z,8.81
2022-11-24T12:59:35.330Z,8.75
2022-11-24T13:02:21.948Z,8.70
2022-11-24T13:04:56.014Z,8.66
2022-11-24T13:07:35.850Z,8.64
2022-11-24T13:10:54.086Z,8.60
2022-11-24T13:13:17.813Z,8.58
2022-11-24T13:19:10.345Z,8.52
2022-11-24T13:21:51.751Z,8.50
2022-11-24T13:24:25.857Z,8.48
2022-11-24T13:26:56.266Z,8.46
2022-11-24T13:29:32.964Z,8.42
2022-11-24T13:32:34.094Z,8.34
2022-11-24T13:35:14.417Z,8.28
2022-11-24T13:37:52.793Z,8.26
2022-11-24T13:40:54.172Z,8.26
2022-11-24T13:43:27.940Z,8.28
2022-11-24T13:45:55.878Z,8.26
2022-11-24T13:49:02.587Z,8.23
2022-11-24T13:51:31.818Z,8.17
2022-11-24T13:54:01.083Z,8.18
2022-11-24T13:56:31.529Z,8.17
2022-11-24T13:59:02.460Z,8.15
2022-11-24T14:01:32.479Z,8.14
2022-11-24T14:04:29.339Z,8.10
2022-11-24T14:07:05.574Z,8.08
2022-11-24T14:09:38.337Z,8.08
2022-11-24T14:12:13.802Z,8.10
2022-11-24T14:14:42.346Z,8.06
2022-11-24T14:17:38.966Z,8.04
2022-11-24T14:20:23.021Z,8.00
2022-11-24T14:22:52.922Z,7.99
2022-11-24T14:25:31.658Z,7.98
2022-11-24T14:28:01.265Z,7.94
2022-11-24T14:30:29.334Z,7.91
2022-11-24T14:32:58.519Z,7.91
2022-11-24T14:35:29.252Z,7.90
2022-11-24T14:37:58.924Z,7.92
2022-11-24T14:40:40.495Z,7.87
2022-11-24T14:43:18.636Z,7.79
2022-11-24T14:45:55.954Z,7.74
2022-11-24T14:48:28.339Z,7.66
2022-11-24T14:51:07.547Z,7.61
2022-11-24T14:53:37.446Z,7.56
2022-11-24T14:56:10.414Z,7.55
2022-11-24T14:58:42.266Z,7.53
2022-11-24T15:01:20.659Z,7.49
2022-11-24T15:04:26.594Z,7.48
2022-11-24T15:07:07.315Z,7.47
2022-11-24T15:09:39.952Z,7.46
2022-11-24T15:12:09.016Z,7.44
2022-11-24T15:14:45.252Z,7.42
2022-11-24T15:17:19.094Z,7.39
2022-11-24T15:19:51.963Z,7.38
2022-11-24T15:22:45.059Z,7.36
2022-11-24T15:25:36.667Z,7.33
2022-11-24T15:28:04.798Z,7.30
2022-11-24T15:30:35.895Z,7.27
2022-11-24T15:33:04.527Z,7.25
2022-11-24T15:35:34.082Z,7.21
2022-11-24T15:38:01.974Z,7.19
2022-11-24T15:40:29.946Z,7.18
2022-11-24T15:43:02.043Z,7.15
2022-11-24T15:45:35.398Z,7.13
2022-11-24T15:48:03.237Z,7.13
2022-11-24T15:50:31.264Z,7.09
2022-11-24T15:53:00.537Z,7.08
2022-11-24T15:55:28.404Z,7.07
2022-11-24T15:57:56.347Z,7.04
2022-11-24T16:00:24.924Z,7.02
2022-11-24T16:02:52.844Z,7.01
2022-11-24T16:05:20.704Z,7.00
2022-11-24T16:07:48.667Z,6.98
2022-11-24T16:10:25.287Z,6.97
2022-11-24T16:12:54.042Z,6.93
2022-11-24T16:15:21.846Z,6.91
2022-11-24T16:17:50.082Z,6.89
2022-11-24T16:20:18.197Z,6.89
2022-11-24T16:22:46.197Z,6.87
2022-11-24T16:25:15.148Z,6.87
2022-11-24T16:27:44.586Z,6.86
2022-11-24T16:30:15.850Z,6.84
2022-11-24T16:32:43.863Z,6.83
2022-11-24T16:35:11.802Z,6.82
2022-11-24T16:37:39.767Z,6.80
2022-11-24T16:40:08.794Z,6.79
2022-11-24T16:42:36.647Z,6.77
2022-11-24T16:45:06.578Z,6.75
2022-11-24T16:47:39.777Z,6.75
2022-11-24T16:50:09.066Z,6.75
2022-11-24T16:52:37.241Z,6.74
2022-11-24T16:55:05.698Z,6.73
2022-11-24T16:57:33.579Z,6.70
2022-11-24T17:00:01.606Z,6.68
2022-11-24T17:02:32.520Z,6.67
2022-11-24T17:05:00.539Z,6.65
2022-11-24T17:07:28.445Z,6.61
2022-11-24T17:09:56.407Z,6.60
2022-11-24T17:12:24.271Z,6.60
2022-11-24T17:15:16.446Z,6.59
2022-11-24T17:18:01.307Z,6.57
2022-11-24T17:20:31.316Z,6.57
2022-11-24T17:22:59.194Z,6.57
2022-11-24T17:25:27.124Z,6.55
2022-11-24T17:27:55.044Z,6.55
2022-11-24T17:30:22.950Z,6.55
2022-11-24T17:32:56.604Z,6.53
2022-11-24T17:35:25.066Z,6.54
2022-11-24T17:37:52.900Z,6.53
2022-11-24T17:40:28.235Z,6.53
2022-11-24T17:42:59.335Z,6.53
2022-11-24T17:45:28.290Z,6.54
2022-11-24T17:47:57.638Z,6.53
2022-11-24T17:50:26.504Z,6.53
2022-11-24T17:52:54.871Z,6.52
2022-11-24T17:55:22.874Z,6.51
2022-11-24T17:57:51.017Z,6.50
2022-11-24T18:00:19.756Z,6.49
2022-11-24T18:02:47.713Z,6.49
2022-11-24T18:05:17.263Z,6.48
2022-11-24T18:07:45.322Z,6.46
2022-11-24T18:10:13.311Z,6.45
2022-11-24T18:12:41.603Z,6.43
2022-11-24T18:15:10.215Z,6.42
2022-11-24T18:17:39.731Z,6.39
2022-11-24T18:20:08.976Z,6.40
2022-11-24T18:23:03.969Z,6.40
2022-11-24T18:25:26.408Z,6.39
2022-11-24T18:27:54.406Z,6.37
2022-11-24T18:30:22.366Z,6.35
2022-11-24T18:32:50.316Z,6.36
2022-11-24T18:35:43.076Z,6.33
2022-11-24T18:38:38.454Z,6.30
2022-11-24T18:41:07.604Z,6.27
2022-11-24T18:43:37.580Z,6.24
2022-11-24T18:46:07.151Z,6.20
2022-11-24T18:48:35.785Z,6.15
2022-11-24T18:51:03.716Z,6.13
2022-11-24T18:53:31.682Z,6.07
2022-11-24T18:56:03.052Z,5.99
2022-11-24T18:58:32.865Z,5.90
2022-11-24T19:01:08.669Z,5.83
2022-11-24T19:03:42.392Z,5.75
2022-11-24T19:06:16.049Z,5.67
2022-11-24T19:08:44.930Z,5.60
2022-11-24T19:11:19.624Z,5.52
2022-11-24T19:13:48.732Z,5.43
2022-11-24T19:16:17.254Z,5.36
2022-11-24T19:18:50.238Z,5.30
2022-11-24T19:21:21.552Z,5.24
2022-11-24T19:23:49.992Z,5.18
2022-11-24T19:26:19.408Z,5.10
2022-11-24T19:28:47.344Z,5.01
2022-11-24T19:31:16.877Z,4.93
2022-11-24T19:33:45.325Z,4.85
2022-11-24T19:36:15.076Z,4.79
2022-11-24T19:38:44.322Z,4.71
2022-11-24T19:41:14.419Z,4.63
2022-11-24T19:43:43.961Z,4.57
2022-11-24T19:46:13.518Z,4.51
2022-11-24T19:48:43.978Z,4.47
2022-11-24T19:51:14.758Z,4.41
2022-11-24T19:53:43.352Z,4.36
2022-11-24T19:56:13.177Z,4.29
2022-11-24T19:58:43.494Z,4.22
2022-11-24T20:01:13.641Z,4.19
2022-11-24T20:03:42.611Z,4.14
2022-11-24T20:06:12.593Z,4.11
2022-11-24T20:08:41.684Z,4.08
2022-11-24T20:11:11.689Z,4.06
2022-11-24T20:13:41.374Z,4.07
2022-11-24T20:16:12.139Z,4.09
2022-11-24T20:18:42.427Z,4.10
2022-11-24T20:21:12.352Z,4.07
2022-11-24T20:23:40.533Z,4.06
2022-11-24T20:26:11.332Z,4.07
2022-11-24T20:28:39.914Z,4.06
2022-11-24T20:31:10.876Z,4.08
2022-11-24T20:33:39.670Z,4.09
2022-11-24T20:36:10.455Z,4.10
2022-11-24T20:38:39.798Z,4.10
2022-11-24T20:41:09.915Z,4.08
2022-11-24T20:43:38.698Z,4.08
2022-11-24T20:46:09.084Z,4.06
2022-11-24T20:48:39.015Z,4.03
2022-11-24T20:51:08.775Z,3.98
2022-11-24T20:53:37.343Z,3.95
2022-11-24T20:56:08.386Z,3.95
2022-11-24T20:58:37.634Z,3.95
2022-11-24T21:01:06.841Z,3.90
2022-11-24T21:03:39.702Z,3.84
2022-11-24T21:06:12.879Z,3.76
2022-11-24T21:08:42.293Z,3.70
2022-11-24T21:11:12.360Z,3.62
2022-11-24T21:13:42.217Z,3.54
2022-11-24T21:16:14.870Z,3.49
2022-11-24T21:18:42.579Z,3.48
2022-11-24T21:21:12.379Z,3.45
2022-11-24T21:23:40.657Z,3.37
2022-11-24T21:26:16.208Z,3.29
2022-11-24T21:28:45.900Z,3.24
2022-11-24T21:31:16.059Z,3.18
2022-11-24T21:33:45.922Z,3.15
2022-11-24T21:36:17.639Z,3.13
2022-11-24T21:38:50.268Z,3.05
2022-11-24T21:41:18.417Z,2.98
2022-11-24T21:43:46.419Z,2.93
2022-11-24T21:46:15.182Z,2.92
2022-11-24T21:48:43.501Z,2.92
2022-11-24T21:51:13.817Z,2.92
2022-11-24T21:53:43.550Z,2.90
2022-11-24T21:56:13.750Z,2.85
2022-11-24T21:58:46.599Z,2.80
2022-11-24T22:01:15.207Z,2.74
2022-11-24T22:03:43.398Z,2.72
2022-11-24T22:06:11.414Z,2.67
2022-11-24T22:08:39.411Z,2.64
2022-11-24T22:11:12.913Z,2.65
2022-11-24T22:13:41.459Z,2.65
2022-11-24T22:16:11.240Z,2.66
2022-11-24T22:18:40.631Z,2.66
2022-11-24T22:21:11.038Z,2.66
2022-11-24T22:23:38.972Z,2.60
2022-11-24T22:26:12.246Z,2.55
2022-11-24T22:28:41.247Z,2.52
2022-11-24T22:31:11.942Z,2.45
2022-11-24T22:33:40.053Z,2.39
2022-11-24T22:36:08.931Z,2.35
2022-11-24T22:38:37.286Z,2.32
2022-11-24T22:41:06.856Z,2.29
2022-11-24T22:43:37.410Z,2.28
2022-11-24T22:46:06.199Z,2.29
2022-11-24T22:48:34.441Z,2.27
2022-11-24T22:51:04.106Z,2.26
2022-11-24T22:53:32.091Z,2.26
2022-11-24T22:56:02.357Z,2.24
2022-11-24T22:58:30.794Z,2.22
2022-11-24T23:01:05.216Z,2.20
2022-11-24T23:06:36.163Z,2.13
2022-11-24T23:09:06.497Z,2.12
2022-11-24T23:11:38.400Z,2.10
2022-11-24T23:14:07.965Z,2.07
2022-11-24T23:16:36.116Z,2.03
2022-11-24T23:19:04.288Z,1.99
2022-11-24T23:21:33.623Z,1.96
2022-11-24T23:24:04.657Z,1.92
2022-11-24T23:26:35.046Z,1.88
2022-11-24T23:29:03.256Z,1.86
2022-11-24T23:31:31.534Z,1.82
2022-11-24T23:34:00.960Z,1.80
2022-11-24T23:36:30.155Z,1.77
2022-11-24T23:39:02.052Z,1.72
2022-11-24T23:41:32.688Z,1.67
2022-11-24T23:44:00.616Z,1.61
2022-11-24T23:46:29.292Z,1.57
2022-11-24T23:48:57.842Z,1.55
2022-11-24T23:51:27.463Z,1.50
2022-11-24T23:53:56.055Z,1.46
2022-11-24T23:56:26.118Z,1.43
2022-11-24T23:58:55.528Z,1.41
